createdAt,value
2018-01-05T00:00:45.891Z,7.86
2018-01-05T00:03:13.564Z,7.82
2018-01-05T00:05:41.253Z,7.83
2018-01-05T00:08:11.045Z,7.80
2018-01-05T00:10:43.032Z,7.80
2018-01-05T00:13:11.065Z,7.79
2018-01-05T00:18:17.617Z,7.79
2018-01-05T00:20:45.386Z,7.81
2018-01-05T00:23:17.646Z,7.79
2018-01-05T00:25:49.903Z,7.74
2018-01-05T00:28:17.619Z,7.75
2018-01-05T00:30:45.392Z,7.74
2018-01-05T00:33:15.637Z,7.74
2018-01-05T00:35:46.383Z,7.76
2018-01-05T00:38:14.284Z,7.79
2018-01-05T00:40:49.818Z,7.79
2018-01-05T00:43:18.481Z,7.82
2018-01-05T00:45:51.545Z,7.83
2018-01-05T00:48:21.685Z,7.84
2018-01-05T00:50:49.366Z,7.83
2018-01-05T00:53:17.068Z,7.90
2018-01-05T00:55:47.293Z,7.83
2018-01-05T00:58:16.683Z,7.84
2018-01-05T01:00:44.560Z,7.76
2018-01-05T01:03:15.025Z,7.75
2018-01-05T01:05:42.806Z,7.74
2018-01-05T01:08:13.933Z,7.78
2018-01-05T01:10:41.875Z,7.75
2018-01-05T01:13:10.430Z,7.71
2018-01-05T01:18:07.303Z,7.74
2018-01-05T01:20:35.043Z,7.74
2018-01-05T01:23:03.327Z,7.74
2018-01-05T01:25:31.084Z,7.76
2018-01-05T01:27:58.868Z,7.73
2018-01-05T01:30:26.591Z,7.74
2018-01-05T01:32:54.636Z,7.75
2018-01-05T01:35:22.322Z,7.77
2018-01-05T01:37:51.684Z,7.79
2018-01-05T01:40:22.952Z,7.78
2018-01-05T01:42:57.470Z,7.79
2018-01-05T01:45:32.673Z,7.79
2018-01-05T01:48:00.374Z,7.75
2018-01-05T01:50:28.065Z,7.79
2018-01-05T01:52:55.763Z,7.76
2018-01-05T01:55:23.504Z,7.74
2018-01-05T01:57:51.246Z,7.77
2018-01-05T02:00:21.028Z,7.74
2018-01-05T02:02:50.555Z,7.73
2018-01-05T02:05:21.014Z,7.74
2018-01-05T02:07:48.678Z,7.75
2018-01-05T02:10:16.355Z,7.73
2018-01-05T02:12:44.631Z,7.76
2018-01-05T02:15:12.750Z,7.76
2018-01-05T02:17:41.132Z,7.71
2018-01-05T02:20:08.784Z,7.74
2018-01-05T02:22:38.402Z,7.74
2018-01-05T02:25:06.462Z,7.79
2018-01-05T02:27:34.085Z,7.77
2018-01-05T02:30:03.028Z,7.75
2018-01-05T02:32:32.406Z,7.73
2018-01-05T02:35:00.080Z,7.75
2018-01-05T02:37:28.240Z,7.74
2018-01-05T02:39:55.977Z,7.71
2018-01-05T02:42:25.752Z,7.73
2018-01-05T02:44:55.352Z,7.77
2018-01-05T02:47:23.114Z,7.78
2018-01-05T02:49:50.838Z,7.77
2018-01-05T02:52:18.736Z,7.79
2018-01-05T02:54:46.819Z,7.78
2018-01-05T02:57:15.094Z,7.75
2018-01-05T02:59:44.337Z,7.75
2018-01-05T03:02:12.165Z,7.78
2018-01-05T03:04:41.135Z,7.76
2018-01-05T03:07:08.911Z,7.76
2018-01-05T03:09:36.983Z,7.78
2018-01-05T03:12:05.976Z,7.77
2018-01-05T03:14:33.807Z,7.76
2018-01-05T03:17:03.865Z,7.79
2018-01-05T03:19:31.740Z,7.81
2018-01-05T03:21:59.828Z,7.80
2018-01-05T03:24:27.617Z,7.79
2018-01-05T03:26:55.287Z,7.75
2018-01-05T03:29:22.987Z,7.76
2018-01-05T03:31:50.909Z,7.75
2018-01-05T03:34:18.696Z,7.75
2018-01-05T03:36:46.465Z,7.74
2018-01-05T03:39:14.288Z,7.72
2018-01-05T03:41:42.126Z,7.76
2018-01-05T03:44:09.886Z,7.72
2018-01-05T03:46:41.704Z,7.70
2018-01-05T03:49:10.779Z,7.71
2018-01-05T03:51:38.508Z,7.68
2018-01-05T03:54:07.058Z,7.68
2018-01-05T03:56:35.878Z,7.69
2018-01-05T03:59:03.538Z,7.72
2018-01-05T04:01:32.530Z,7.71
2018-01-05T04:04:00.149Z,7.69
2018-01-05T04:06:27.923Z,7.66
2018-01-05T04:08:57.352Z,7.65
2018-01-05T04:11:25.247Z,7.67
2018-01-05T04:13:53.627Z,7.67
2018-01-05T04:16:21.391Z,7.61
2018-01-05T04:18:49.123Z,7.63
2018-01-05T04:21:16.845Z,7.62
2018-01-05T04:23:44.668Z,7.64
2018-01-05T04:26:12.361Z,7.64
2018-01-05T04:28:40.166Z,7.65
2018-01-05T04:31:07.853Z,7.67
2018-01-05T04:33:35.743Z,7.64
2018-01-05T04:36:03.432Z,7.61
2018-01-05T04:38:31.209Z,7.63
2018-01-05T04:40:58.900Z,7.64
2018-01-05T04:43:26.684Z,7.56
2018-01-05T04:45:55.161Z,7.57
2018-01-05T04:48:22.894Z,7.58
2018-01-05T04:50:51.156Z,7.51
2018-01-05T04:53:19.195Z,7.50
2018-01-05T04:55:47.126Z,7.49
2018-01-05T04:58:14.830Z,7.49
2018-01-05T05:00:42.740Z,7.50
2018-01-05T05:03:10.418Z,7.51
2018-01-05T05:05:38.513Z,7.49
2018-01-05T05:08:06.212Z,7.46
2018-01-05T05:10:33.952Z,7.47
2018-01-05T05:13:01.657Z,7.43
2018-01-05T05:15:29.376Z,7.43
2018-01-05T05:17:57.443Z,7.44
2018-01-05T05:20:25.080Z,7.42
2018-01-05T05:22:52.775Z,7.45
2018-01-05T05:25:20.547Z,7.43
2018-01-05T05:27:48.490Z,7.41
2018-01-05T05:30:16.152Z,7.43
2018-01-05T05:32:44.001Z,7.38
2018-01-05T05:35:11.690Z,7.39
2018-01-05T05:37:39.383Z,7.37
2018-01-05T05:40:07.162Z,7.32
2018-01-05T05:42:34.866Z,7.26
2018-01-05T05:45:02.849Z,7.22
2018-01-05T05:47:30.507Z,7.20
2018-01-05T05:49:58.574Z,7.10
2018-01-05T05:52:26.309Z,7.04
2018-01-05T05:54:54.001Z,7.05
2018-01-05T05:57:23.950Z,7.04
2018-01-05T05:59:51.693Z,7.04
2018-01-05T06:02:19.361Z,7.04
2018-01-05T06:04:48.530Z,7.06
2018-01-05T06:07:16.199Z,6.99
2018-01-05T06:09:43.974Z,6.95
2018-01-05T06:12:11.697Z,6.95
2018-01-05T06:14:39.382Z,6.92
2018-01-05T06:17:07.079Z,6.92
2018-01-05T06:19:34.744Z,6.91
2018-01-05T06:22:02.504Z,6.88
2018-01-05T06:24:30.582Z,6.86
2018-01-05T06:26:58.255Z,6.80
2018-01-05T06:29:30.826Z,6.77
2018-01-05T06:32:00.832Z,6.80
2018-01-05T06:34:29.705Z,6.81
2018-01-05T06:36:57.458Z,6.79
2018-01-05T06:39:26.214Z,6.79
2018-01-05T06:41:54.033Z,6.81
2018-01-05T06:44:24.412Z,6.76
2018-01-05T06:46:52.471Z,6.80
2018-01-05T06:49:20.696Z,6.78
2018-01-05T06:51:48.825Z,6.80
2018-01-05T06:57:12.114Z,6.80
2018-01-05T06:59:39.875Z,6.78
2018-01-05T07:02:08.897Z,6.78
2018-01-05T07:04:38.768Z,6.77
2018-01-05T07:07:06.778Z,6.74
2018-01-05T07:09:34.795Z,6.67
2018-01-05T07:12:02.483Z,6.65
2018-01-05T07:14:30.225Z,6.65
2018-01-05T07:16:59.053Z,6.59
2018-01-05T07:19:28.616Z,6.53
2018-01-05T07:21:56.384Z,6.51
2018-01-05T07:24:25.244Z,6.51
2018-01-05T07:26:55.396Z,6.50
2018-01-05T07:29:24.206Z,6.45
2018-01-05T07:31:51.968Z,6.43
2018-01-05T07:34:19.720Z,6.39
2018-01-05T07:36:47.414Z,6.36
2018-01-05T07:39:15.123Z,6.38
2018-01-05T07:41:42.862Z,6.36
2018-01-05T07:44:11.364Z,6.31
2018-01-05T07:46:40.225Z,6.31
2018-01-05T07:49:09.188Z,6.25
2018-01-05T07:51:37.143Z,6.30
2018-01-05T07:54:05.995Z,6.32
2018-01-05T07:56:35.013Z,6.27
2018-01-05T07:59:02.766Z,6.27
2018-01-05T08:01:30.516Z,6.25
2018-01-05T08:04:00.692Z,6.24
2018-01-05T08:06:30.930Z,6.17
2018-01-05T08:08:58.834Z,6.14
2018-01-05T08:11:28.066Z,6.14
2018-01-05T08:13:58.099Z,6.13
2018-01-05T08:16:26.583Z,6.13
2018-01-05T08:18:55.812Z,6.08
2018-01-05T08:21:23.621Z,6.07
2018-01-05T08:23:51.729Z,6.05
2018-01-05T08:26:19.867Z,6.09
2018-01-05T08:28:49.465Z,6.09
2018-01-05T08:31:17.404Z,6.08
2018-01-05T08:33:46.278Z,6.04
2018-01-05T08:36:14.099Z,6.03
2018-01-05T08:38:43.340Z,6.02
2018-01-05T08:41:11.902Z,6.03
2018-01-05T08:43:41.144Z,6.02
2018-01-05T08:46:10.466Z,6.02
2018-01-05T08:48:39.492Z,6.04
2018-01-05T08:51:07.250Z,6.06
2018-01-05T08:53:35.759Z,6.05
2018-01-05T08:56:03.594Z,6.04
2018-01-05T08:58:32.204Z,6.08
2018-01-05T09:01:00.785Z,6.05
2018-01-05T09:03:28.738Z,6.06
2018-01-05T09:05:57.694Z,6.06
2018-01-05T09:08:26.685Z,6.11
2018-01-05T09:10:54.576Z,6.12
2018-01-05T09:13:22.366Z,6.09
2018-01-05T09:15:50.982Z,6.11
2018-01-05T09:18:20.047Z,6.11
2018-01-05T09:20:47.841Z,6.12
2018-01-05T09:23:15.606Z,6.15
2018-01-05T09:25:43.347Z,6.13
2018-01-05T09:28:12.379Z,6.17
2018-01-05T09:30:41.004Z,6.18
2018-01-05T09:33:08.963Z,6.18
2018-01-05T09:35:36.727Z,6.20
2018-01-05T09:38:04.344Z,6.18
2018-01-05T09:40:32.053Z,6.21
2018-01-05T09:42:59.744Z,6.22
2018-01-05T09:45:27.783Z,6.22
2018-01-05T09:47:55.513Z,6.24
2018-01-05T09:50:23.286Z,6.26
2018-01-05T09:52:51.079Z,6.27
2018-01-05T09:55:19.083Z,6.28
2018-01-05T09:57:47.123Z,6.30
2018-01-05T10:00:15.190Z,6.36
2018-01-05T10:02:42.988Z,6.37
2018-01-05T10:05:10.692Z,6.38
2018-01-05T10:07:38.403Z,6.43
2018-01-05T10:10:06.437Z,6.47
2018-01-05T10:12:34.131Z,6.46
2018-01-05T10:15:01.769Z,6.46
2018-01-05T10:17:29.750Z,6.47
2018-01-05T10:19:57.459Z,6.49
2018-01-05T10:22:25.156Z,6.52
2018-01-05T10:24:52.839Z,6.53
2018-01-05T10:27:20.592Z,6.53
2018-01-05T10:32:22.603Z,6.53
2018-01-05T10:37:52.461Z,6.56
2018-01-05T10:40:20.910Z,6.58
2018-01-05T10:42:48.984Z,6.60
2018-01-05T10:45:16.756Z,6.62
2018-01-05T10:47:44.509Z,6.64
2018-01-05T10:50:12.194Z,6.65
2018-01-05T10:52:40.133Z,6.66
2018-01-05T10:55:07.823Z,6.71
2018-01-05T10:57:42.681Z,6.74
2018-01-05T11:00:10.447Z,6.73
2018-01-05T11:02:38.123Z,6.74
2018-01-05T11:05:06.122Z,6.76
2018-01-05T11:07:33.877Z,6.78
2018-01-05T11:10:01.665Z,6.81
2018-01-05T11:12:29.440Z,6.84
2018-01-05T11:14:57.120Z,6.85
2018-01-05T11:17:24.814Z,6.88
2018-01-05T11:19:52.542Z,6.90
2018-01-05T11:22:20.670Z,6.93
2018-01-05T11:24:48.368Z,6.95
2018-01-05T11:27:16.254Z,6.98
2018-01-05T11:29:44.217Z,7.00
2018-01-05T11:32:11.882Z,7.00
2018-01-05T11:34:40.039Z,7.03
2018-01-05T11:37:07.766Z,7.05
2018-01-05T11:39:35.581Z,7.07
2018-01-05T11:42:03.303Z,7.04
2018-01-05T11:44:30.942Z,7.05
2018-01-05T11:47:00.624Z,7.07
2018-01-05T11:49:28.569Z,7.08
2018-01-05T11:51:56.385Z,7.07
2018-01-05T11:54:25.138Z,7.08
2018-01-05T11:56:53.161Z,7.10
2018-01-05T11:59:20.901Z,7.09
2018-01-05T12:01:48.561Z,7.09
2018-01-05T12:04:16.688Z,7.11
2018-01-05T12:06:44.391Z,7.11
2018-01-05T12:09:12.058Z,7.12
2018-01-05T12:11:40.179Z,7.14
2018-01-05T12:14:07.810Z,7.15
2018-01-05T12:16:36.832Z,7.14
2018-01-05T12:21:39.903Z,7.16
2018-01-05T12:24:07.595Z,7.18
2018-01-05T12:26:35.322Z,7.21
2018-01-05T12:29:02.987Z,7.23
2018-01-05T12:31:30.696Z,7.25
2018-01-05T12:33:58.376Z,7.27
2018-01-05T12:36:26.083Z,7.27
2018-01-05T12:38:53.731Z,7.30
2018-01-05T12:41:21.849Z,7.31
2018-01-05T12:43:49.924Z,7.30
2018-01-05T12:46:18.903Z,7.25
2018-01-05T12:48:46.701Z,7.29
2018-01-05T12:51:15.633Z,7.31
2018-01-05T12:53:44.237Z,7.32
2018-01-05T12:56:12.330Z,7.32
2018-01-05T12:58:40.043Z,7.29
2018-01-05T13:01:07.726Z,7.30
2018-01-05T13:03:35.615Z,7.31
2018-01-05T13:06:03.292Z,7.30
2018-01-05T13:08:30.908Z,7.30
2018-01-05T13:10:58.520Z,7.32
2018-01-05T13:13:26.090Z,7.31
2018-01-05T13:15:53.844Z,7.31
2018-01-05T13:18:21.444Z,7.33
2018-01-05T13:20:49.111Z,7.30
2018-01-05T13:23:16.671Z,7.32
2018-01-05T13:25:45.791Z,7.32
2018-01-05T13:28:13.784Z,7.34
2018-01-05T13:30:41.418Z,7.32
2018-01-05T13:33:09.005Z,7.33
2018-01-05T13:35:36.618Z,7.33
2018-01-05T13:38:04.288Z,7.32
2018-01-05T13:40:31.889Z,7.35
2018-01-05T13:42:59.847Z,7.35
2018-01-05T13:45:27.458Z,7.36
2018-01-05T13:47:55.029Z,7.37
2018-01-05T13:50:22.874Z,7.39
2018-01-05T13:52:50.799Z,7.35
2018-01-05T13:55:18.379Z,7.35
2018-01-05T13:57:46.026Z,7.32
2018-01-05T14:00:13.626Z,7.31
2018-01-05T14:02:41.283Z,7.30
2018-01-05T14:05:11.958Z,7.31
2018-01-05T14:07:40.004Z,7.29
2018-01-05T14:10:07.603Z,7.29
2018-01-05T14:12:35.474Z,7.28
2018-01-05T14:15:03.295Z,7.26
2018-01-05T14:17:30.863Z,7.26
2018-01-05T14:19:58.517Z,7.24
2018-01-05T14:22:26.159Z,7.25
2018-01-05T14:24:54.108Z,7.25
2018-01-05T14:27:26.057Z,7.27
2018-01-05T14:29:54.150Z,7.26
2018-01-05T14:32:21.743Z,7.27
2018-01-05T14:34:49.424Z,7.24
2018-01-05T14:37:17.343Z,7.22
2018-01-05T14:39:45.031Z,7.18
2018-01-05T14:42:12.687Z,7.18
2018-01-05T14:44:40.397Z,7.18
2018-01-05T14:47:07.967Z,7.18
2018-01-05T14:49:35.669Z,7.16
2018-01-05T14:52:03.293Z,7.17
2018-01-05T14:54:30.903Z,7.15
2018-01-05T14:56:58.942Z,7.16
2018-01-05T14:59:26.513Z,7.18
2018-01-05T15:01:54.095Z,7.19
2018-01-05T15:04:21.840Z,7.20
2018-01-05T15:06:49.501Z,7.17
2018-01-05T15:09:17.123Z,7.17
2018-01-05T15:11:44.692Z,7.18
2018-01-05T15:14:12.377Z,7.16
2018-01-05T15:16:41.204Z,7.18
2018-01-05T15:19:08.834Z,7.15
2018-01-05T15:21:36.485Z,7.17
2018-01-05T15:24:04.108Z,7.17
2018-01-05T15:26:32.035Z,7.17
2018-01-05T15:28:59.753Z,7.18
2018-01-05T15:31:27.637Z,7.17
2018-01-05T15:33:55.259Z,7.18
2018-01-05T15:36:22.920Z,7.16
2018-01-05T15:38:50.562Z,7.17
2018-01-05T15:41:18.183Z,7.20
2018-01-05T15:43:45.967Z,7.17
2018-01-05T15:46:13.938Z,7.17
2018-01-05T15:48:41.522Z,7.16
2018-01-05T15:51:09.204Z,7.17
2018-01-05T15:53:36.958Z,7.21
2018-01-05T15:56:04.608Z,7.20
2018-01-05T15:58:32.314Z,7.21
2018-01-05T16:01:00.415Z,7.23
2018-01-05T16:03:28.040Z,7.22
2018-01-05T16:05:55.669Z,7.22
2018-01-05T16:08:23.571Z,7.22
2018-01-05T16:10:51.795Z,7.24
2018-01-05T16:13:19.598Z,7.25
2018-01-05T16:15:47.500Z,7.25
2018-01-05T16:18:15.159Z,7.28
2018-01-05T16:20:42.887Z,7.27
2018-01-05T16:23:10.519Z,7.30
2018-01-05T16:25:38.364Z,7.30
2018-01-05T16:28:06.020Z,7.30
2018-01-05T16:30:33.630Z,7.31
2018-01-05T16:33:01.268Z,7.34
2018-01-05T16:35:28.851Z,7.36
2018-01-05T16:37:56.467Z,7.37
2018-01-05T16:40:24.122Z,7.38
2018-01-05T16:42:51.926Z,7.37
2018-01-05T16:45:19.863Z,7.39
2018-01-05T16:47:47.827Z,7.40
2018-01-05T16:50:15.657Z,7.41
2018-01-05T16:52:43.295Z,7.44
2018-01-05T16:55:10.971Z,7.45
2018-01-05T16:57:38.562Z,7.45
2018-01-05T17:00:06.193Z,7.45
2018-01-05T17:02:33.846Z,7.45
2018-01-05T17:05:01.429Z,7.47
2018-01-05T17:07:29.330Z,7.47
2018-01-05T17:09:56.972Z,7.45
2018-01-05T17:12:24.870Z,7.45
2018-01-05T17:14:52.544Z,7.46
2018-01-05T17:17:20.503Z,7.48
2018-01-05T17:19:48.086Z,7.50
2018-01-05T17:22:15.994Z,7.52
2018-01-05T17:24:43.667Z,7.55
2018-01-05T17:27:12.173Z,7.54
2018-01-05T17:29:39.798Z,7.54
2018-01-05T17:32:09.453Z,7.55
2018-01-05T17:34:37.515Z,7.55
2018-01-05T17:37:05.113Z,7.56
2018-01-05T17:39:32.816Z,7.56
2018-01-05T17:42:00.512Z,7.56
2018-01-05T17:44:28.186Z,7.56
2018-01-05T17:46:55.891Z,7.57
2018-01-05T17:49:23.543Z,7.57
2018-01-05T17:51:51.211Z,7.58
2018-01-05T17:54:19.760Z,7.58
2018-01-05T17:56:47.381Z,7.60
2018-01-05T17:59:15.045Z,7.60
2018-01-05T18:01:43.922Z,7.63
2018-01-05T18:04:14.446Z,7.64
2018-01-05T18:06:44.395Z,7.65
2018-01-05T18:09:24.617Z,7.67
2018-01-05T18:11:52.376Z,7.65
2018-01-05T18:14:20.277Z,7.66
2018-01-05T18:16:47.917Z,7.68
2018-01-05T18:19:15.502Z,7.70
2018-01-05T18:21:44.311Z,7.69
2018-01-05T18:24:11.955Z,7.71
2018-01-05T18:26:39.619Z,7.69
2018-01-05T18:29:07.599Z,7.68
2018-01-05T18:31:36.632Z,7.73
2018-01-05T18:34:04.399Z,7.72
2018-01-05T18:36:33.132Z,7.70
2018-01-05T18:39:00.988Z,7.73
2018-01-05T18:41:29.279Z,7.72
2018-01-05T18:43:57.352Z,7.73
2018-01-05T18:46:24.970Z,7.74
2018-01-05T18:48:52.794Z,7.73
2018-01-05T18:51:20.505Z,7.74
2018-01-05T18:53:48.131Z,7.73
2018-01-05T18:56:15.792Z,7.72
2018-01-05T18:58:43.733Z,7.73
2018-01-05T19:01:11.399Z,7.72
2018-01-05T19:03:39.249Z,7.71
2018-01-05T19:06:07.229Z,7.68
2018-01-05T19:08:34.837Z,7.66
2018-01-05T19:11:02.755Z,7.60
2018-01-05T19:13:30.404Z,7.58
2018-01-05T19:15:58.020Z,7.54
2018-01-05T19:18:25.668Z,7.46
2018-01-05T19:20:53.222Z,7.43
2018-01-05T19:23:20.968Z,7.38
2018-01-05T19:25:48.838Z,7.35
2018-01-05T19:30:54.828Z,7.27
2018-01-05T19:33:22.614Z,7.23
2018-01-05T19:35:50.266Z,7.18
2018-01-05T19:38:17.907Z,7.15
2018-01-05T19:40:46.996Z,7.13
2018-01-05T19:43:14.688Z,7.13
2018-01-05T19:45:42.550Z,7.12
2018-01-05T19:48:13.950Z,7.10
2018-01-05T19:50:42.069Z,7.07
2018-01-05T19:53:12.427Z,7.05
2018-01-05T19:55:41.766Z,7.01
2018-01-05T19:58:09.622Z,6.97
2018-01-05T20:00:39.534Z,6.93
2018-01-05T20:03:07.662Z,6.91
2018-01-05T20:05:37.209Z,6.88
2018-01-05T20:08:08.129Z,6.85
2018-01-05T20:10:38.439Z,6.85
2018-01-05T20:13:07.732Z,6.80
2018-01-05T20:15:36.482Z,6.75
2018-01-05T20:18:04.139Z,6.73
2018-01-05T20:20:31.988Z,6.72
2018-01-05T20:22:59.732Z,6.67
2018-01-05T20:25:29.057Z,6.61
2018-01-05T20:27:56.707Z,6.56
2018-01-05T20:30:27.413Z,6.53
2018-01-05T20:32:55.144Z,6.48
2018-01-05T20:35:26.168Z,6.43
2018-01-05T20:37:55.990Z,6.41
2018-01-05T20:40:23.778Z,6.40
2018-01-05T20:42:53.302Z,6.39
2018-01-05T20:45:21.382Z,6.36
2018-01-05T20:47:48.999Z,6.34
2018-01-05T20:50:19.102Z,6.34
2018-01-05T20:52:46.790Z,6.36
2018-01-05T20:55:14.681Z,6.36
2018-01-05T20:57:42.305Z,6.38
2018-01-05T21:00:10.278Z,6.38
2018-01-05T21:02:38.958Z,6.40
2018-01-05T21:05:06.724Z,6.40
2018-01-05T21:07:34.474Z,6.42
2018-01-05T21:10:02.316Z,6.43
2018-01-05T21:12:29.959Z,6.42
2018-01-05T21:14:58.410Z,6.42
2018-01-05T21:17:26.078Z,6.40
2018-01-05T21:19:53.713Z,6.39
2018-01-05T21:22:21.303Z,6.36
2018-01-05T21:24:49.336Z,6.34
2018-01-05T21:27:17.683Z,6.31
2018-01-05T21:29:49.097Z,6.29
2018-01-05T21:32:20.333Z,6.28
2018-01-05T21:34:47.931Z,6.27
2018-01-05T21:37:27.890Z,6.25
2018-01-05T21:39:56.992Z,6.21
2018-01-05T21:42:24.610Z,6.18
2018-01-05T21:44:52.341Z,6.16
2018-01-05T21:47:20.096Z,6.15
2018-01-05T21:49:48.212Z,6.13
2018-01-05T21:52:15.844Z,6.09
2018-01-05T21:54:43.558Z,6.03
2018-01-05T21:57:11.255Z,6.01
2018-01-05T21:59:39.084Z,5.96
2018-01-05T22:02:06.874Z,5.96
2018-01-05T22:04:34.693Z,5.95
2018-01-05T22:07:02.766Z,5.90
2018-01-05T22:09:30.722Z,5.87
2018-01-05T22:11:58.312Z,5.89
2018-01-05T22:14:26.297Z,5.88
2018-01-05T22:16:54.048Z,5.82
2018-01-05T22:19:22.699Z,5.81
2018-01-05T22:21:50.439Z,5.79
2018-01-05T22:24:19.411Z,5.74
2018-01-05T22:26:47.316Z,5.73
2018-01-05T22:29:15.165Z,5.74
2018-01-05T22:31:42.915Z,5.73
2018-01-05T22:34:11.149Z,5.70
2018-01-05T22:36:39.333Z,5.68
2018-01-05T22:39:07.268Z,5.67
2018-01-05T22:41:35.028Z,5.65
2018-01-05T22:44:02.774Z,5.66
2018-01-05T22:46:30.444Z,5.65
2018-01-05T22:48:58.275Z,5.60
2018-01-05T22:51:26.108Z,5.58
2018-01-05T22:53:54.038Z,5.56
2018-01-05T22:56:22.018Z,5.53
2018-01-05T22:58:49.961Z,5.52
2018-01-05T23:01:19.020Z,5.53
2018-01-05T23:03:46.896Z,5.53
2018-01-05T23:06:14.817Z,5.52
2018-01-05T23:08:42.630Z,5.49
2018-01-05T23:11:10.559Z,5.47
2018-01-05T23:13:38.205Z,5.45
2018-01-05T23:16:05.966Z,5.43
2018-01-05T23:18:33.807Z,5.44
2018-01-05T23:21:01.386Z,5.44
2018-01-05T23:23:29.153Z,5.43
2018-01-05T23:25:56.825Z,5.45
2018-01-05T23:28:24.621Z,5.45
2018-01-05T23:30:52.394Z,5.46
2018-01-05T23:33:20.737Z,5.48
2018-01-05T23:35:48.397Z,5.48
2018-01-05T23:38:16.306Z,5.50
2018-01-05T23:40:44.017Z,5.51
2018-01-05T23:43:11.857Z,5.53
2018-01-05T23:45:39.726Z,5.53
2018-01-05T23:48:07.503Z,5.51
2018-01-05T23:50:35.133Z,5.52
2018-01-05T23:53:02.785Z,5.53
2018-01-05T23:55:32.412Z,5.52
2018-01-05T23:58:00.142Z,5.52
